createdAt,value
2022-12-15T00:00:16.331Z,0.55
2022-12-15T00:03:02.356Z,0.61
2022-12-15T00:05:49.834Z,0.72
2022-12-15T00:08:36.636Z,0.76
2022-12-15T00:11:22.935Z,0.68
2022-12-15T00:14:11.914Z,0.65
2022-12-15T00:16:58.135Z,0.54
2022-12-15T00:19:43.981Z,0.58
2022-12-15T00:22:30.217Z,0.35
2022-12-15T00:25:16.220Z,0.60
2022-12-15T00:28:01.928Z,0.39
2022-12-15T00:30:51.367Z,0.38
2022-12-15T00:33:37.591Z,0.29
2022-12-15T00:36:23.848Z,0.25
2022-12-15T00:38:51.618Z,0.26
2022-12-15T00:41:20.401Z,0.35
2022-12-15T00:43:47.990Z,0.25
2022-12-15T00:46:34.035Z,0.34
2022-12-15T00:49:01.936Z,0.35
2022-12-15T00:51:47.945Z,0.45
2022-12-15T00:54:34.052Z,0.19
2022-12-15T00:57:20.193Z,0.42
2022-12-15T01:00:06.454Z,0.61
2022-12-15T01:02:54.382Z,0.61
2022-12-15T01:05:43.957Z,0.46
2022-12-15T01:08:29.970Z,0.57
2022-12-15T01:11:19.362Z,0.55
2022-12-15T01:14:05.428Z,0.55
2022-12-15T01:16:53.017Z,0.45
2022-12-15T01:19:38.870Z,0.63
2022-12-15T01:22:07.639Z,0.60
2022-12-15T01:24:35.645Z,0.70
2022-12-15T01:27:03.250Z,0.69
2022-12-15T01:29:30.761Z,0.70
2022-12-15T01:31:58.272Z,0.73
2022-12-15T01:34:25.920Z,0.67
2022-12-15T01:36:53.426Z,0.82
2022-12-15T01:39:20.936Z,0.86
2022-12-15T01:41:48.491Z,0.82
2022-12-15T01:44:20.723Z,0.82
2022-12-15T01:46:52.643Z,0.82
2022-12-15T01:49:27.742Z,0.76
2022-12-15T01:52:00.944Z,0.83
2022-12-15T01:54:38.959Z,0.89
2022-12-15T01:57:14.700Z,0.78
2022-12-15T01:59:50.715Z,0.71
2022-12-15T02:02:21.473Z,0.90
2022-12-15T02:04:52.081Z,0.79
2022-12-15T02:07:20.148Z,0.84
2022-12-15T02:09:49.885Z,0.75
2022-12-15T02:12:17.341Z,0.70
2022-12-15T02:15:13.870Z,0.70
2022-12-15T02:17:59.753Z,0.65
2022-12-15T02:21:05.977Z,0.64
2022-12-15T02:23:50.135Z,0.81
2022-12-15T02:26:45.588Z,0.72
2022-12-15T02:29:16.082Z,0.86
2022-12-15T02:31:52.650Z,0.78
2022-12-15T02:34:32.869Z,0.81
2022-12-15T02:37:15.792Z,0.85
2022-12-15T02:39:44.037Z,0.96
2022-12-15T02:42:12.075Z,0.92
2022-12-15T02:44:49.278Z,0.78
2022-12-15T02:47:31.783Z,0.69
2022-12-15T02:50:19.841Z,0.90
2022-12-15T02:53:26.343Z,0.90
2022-12-15T02:56:15.202Z,0.90
2022-12-15T02:59:11.224Z,0.92
2022-12-15T03:02:06.555Z,0.94
2022-12-15T03:04:34.253Z,0.97
2022-12-15T03:07:05.986Z,0.91
2022-12-15T03:09:34.017Z,0.95
2022-12-15T03:12:01.881Z,0.99
2022-12-15T03:14:29.399Z,0.90
2022-12-15T03:16:57.051Z,0.91
2022-12-15T03:19:25.868Z,0.95
2022-12-15T03:21:53.409Z,0.88
2022-12-15T03:24:20.951Z,0.91
2022-12-15T03:26:51.846Z,0.99
2022-12-15T03:29:19.574Z,0.94
2022-12-15T03:31:49.986Z,0.87
2022-12-15T03:34:18.077Z,0.87
2022-12-15T03:36:45.818Z,0.86
2022-12-15T03:39:13.495Z,0.74
2022-12-15T03:41:41.711Z,0.47
2022-12-15T03:44:09.910Z,0.50
2022-12-15T03:46:37.440Z,0.57
2022-12-15T03:49:05.283Z,0.58
2022-12-15T03:51:32.818Z,0.63
2022-12-15T03:54:00.327Z,0.72
2022-12-15T03:56:28.049Z,0.82
2022-12-15T03:58:55.684Z,0.87
2022-12-15T04:01:30.420Z,0.92
2022-12-15T04:04:00.860Z,0.92
2022-12-15T04:06:30.008Z,1.01
2022-12-15T04:08:57.796Z,1.03
2022-12-15T04:11:25.765Z,0.97
2022-12-15T04:13:53.406Z,1.07
2022-12-15T04:16:21.035Z,1.06
2022-12-15T04:19:11.458Z,1.07
2022-12-15T04:21:39.087Z,1.26
2022-12-15T04:24:25.318Z,1.12
2022-12-15T04:27:11.435Z,1.24
2022-12-15T04:29:57.142Z,1.25
2022-12-15T04:32:43.876Z,1.23
2022-12-15T04:35:35.874Z,1.37
2022-12-15T04:38:22.333Z,1.32
2022-12-15T04:41:08.361Z,1.53
2022-12-15T04:43:54.318Z,1.50
2022-12-15T04:46:40.481Z,1.62
2022-12-15T04:49:27.003Z,1.54
2022-12-15T04:52:13.341Z,1.52
2022-12-15T04:54:59.649Z,1.36
2022-12-15T04:57:45.734Z,1.32
2022-12-15T05:00:32.277Z,1.04
2022-12-15T05:03:25.912Z,1.01
2022-12-15T05:06:12.359Z,0.93
2022-12-15T05:08:58.569Z,0.84
2022-12-15T05:11:44.966Z,0.74
2022-12-15T05:14:30.775Z,0.65
2022-12-15T05:17:17.146Z,0.46
2022-12-15T05:20:03.496Z,0.44
2022-12-15T05:22:49.797Z,0.35
2022-12-15T05:25:36.269Z,0.22
2022-12-15T05:28:25.497Z,0.22
2022-12-15T05:31:11.492Z,-0.01
2022-12-15T05:33:39.092Z,-0.06
2022-12-15T05:36:07.175Z,-0.06
2022-12-15T05:38:34.679Z,-0.01
2022-12-15T05:41:02.254Z,-0.07
2022-12-15T05:43:30.301Z,-0.05
2022-12-15T05:46:04.183Z,-0.01
2022-12-15T05:48:31.919Z,0.07
2022-12-15T05:51:04.360Z,0.13
2022-12-15T05:53:32.609Z,0.18
2022-12-15T05:56:09.521Z,0.17
2022-12-15T05:58:44.593Z,0.18
2022-12-15T06:01:15.292Z,0.15
2022-12-15T06:03:43.163Z,0.32
2022-12-15T06:06:12.537Z,0.26
2022-12-15T06:08:42.691Z,0.26
2022-12-15T06:11:15.097Z,0.10
2022-12-15T06:13:44.029Z,0.12
2022-12-15T06:16:17.095Z,0.13
2022-12-15T06:18:49.994Z,0.10
2022-12-15T06:21:20.243Z,0.30
2022-12-15T06:23:48.147Z,0.29
2022-12-15T06:26:18.149Z,0.31
2022-12-15T06:28:46.696Z,0.26
2022-12-15T06:31:15.677Z,0.40
2022-12-15T06:33:44.370Z,0.53
2022-12-15T06:36:14.638Z,0.47
2022-12-15T06:38:43.665Z,0.45
2022-12-15T06:41:14.344Z,0.55
2022-12-15T06:43:42.691Z,0.70
2022-12-15T06:46:10.390Z,0.72
2022-12-15T06:48:38.123Z,0.75
2022-12-15T06:51:15.005Z,0.70
2022-12-15T06:53:54.074Z,0.75
2022-12-15T06:56:33.119Z,0.74
2022-12-15T06:59:07.296Z,0.74
2022-12-15T07:01:35.563Z,0.83
2022-12-15T07:04:05.590Z,0.80
2022-12-15T07:06:36.690Z,0.81
2022-12-15T07:09:12.790Z,0.69
2022-12-15T07:11:40.678Z,0.85
2022-12-15T07:14:10.023Z,0.92
2022-12-15T07:16:37.588Z,1.06
2022-12-15T07:19:05.368Z,1.16
2022-12-15T07:21:32.921Z,0.98
2022-12-15T07:24:01.692Z,1.26
2022-12-15T07:26:30.606Z,1.33
2022-12-15T07:28:58.420Z,1.46
2022-12-15T07:31:25.977Z,1.70
2022-12-15T07:33:54.850Z,1.58
2022-12-15T07:36:22.715Z,1.51
2022-12-15T07:38:51.621Z,1.46
2022-12-15T07:41:20.678Z,1.48
2022-12-15T07:43:48.588Z,1.38
2022-12-15T07:46:16.916Z,1.36
2022-12-15T07:48:44.754Z,1.32
2022-12-15T07:51:20.386Z,1.69
2022-12-15T07:53:51.398Z,1.95
2022-12-15T07:56:20.043Z,2.26
2022-12-15T07:58:48.067Z,2.73
2022-12-15T08:01:16.517Z,3.02
2022-12-15T08:03:45.150Z,2.37
2022-12-15T08:06:14.947Z,2.34
2022-12-15T08:08:44.957Z,2.60
2022-12-15T08:11:22.214Z,2.64
2022-12-15T08:14:10.624Z,2.72
2022-12-15T08:16:38.134Z,2.27
2022-12-15T08:19:07.168Z,2.36
2022-12-15T08:21:35.198Z,2.57
2022-12-15T08:24:05.152Z,2.72
2022-12-15T08:26:32.765Z,2.85
2022-12-15T08:29:40.642Z,2.96
2022-12-15T08:31:58.211Z,2.83
2022-12-15T08:34:26.061Z,2.93
2022-12-15T08:36:54.267Z,3.15
2022-12-15T08:39:22.998Z,3.47
2022-12-15T08:41:50.693Z,3.42
2022-12-15T08:44:18.203Z,3.40
2022-12-15T08:46:45.750Z,3.40
2022-12-15T08:49:17.950Z,3.06
2022-12-15T08:51:50.118Z,3.35
2022-12-15T08:54:19.560Z,3.51
2022-12-15T08:56:47.563Z,3.21
2022-12-15T08:59:15.820Z,3.12
2022-12-15T09:01:43.703Z,3.19
2022-12-15T09:04:11.359Z,3.16
2022-12-15T09:06:38.956Z,3.58
2022-12-15T09:09:08.470Z,3.89
2022-12-15T09:11:36.401Z,4.19
2022-12-15T09:14:04.084Z,4.16
2022-12-15T09:16:31.695Z,4.13
2022-12-15T09:19:00.226Z,3.98
2022-12-15T09:21:30.459Z,3.94
2022-12-15T09:24:01.877Z,3.87
2022-12-15T09:26:32.883Z,3.68
2022-12-15T09:29:02.078Z,3.71
2022-12-15T09:31:36.335Z,3.81
2022-12-15T09:34:04.009Z,3.79
2022-12-15T09:36:32.810Z,3.93
2022-12-15T09:39:02.437Z,3.98
2022-12-15T09:41:32.938Z,4.66
2022-12-15T09:44:05.204Z,4.88
2022-12-15T09:46:51.046Z,5.62
2022-12-15T09:49:55.822Z,5.82
2022-12-15T09:52:35.693Z,6.78
2022-12-15T09:55:16.903Z,7.52
2022-12-15T09:58:26.512Z,8.11
2022-12-15T10:01:08.885Z,6.89
2022-12-15T10:04:02.035Z,5.61
2022-12-15T10:06:37.304Z,5.17
2022-12-15T10:09:30.393Z,4.48
2022-12-15T10:12:01.017Z,4.46
2022-12-15T10:14:52.305Z,4.21
2022-12-15T10:17:41.503Z,4.16
2022-12-15T10:20:21.420Z,3.97
2022-12-15T10:22:51.300Z,3.84
2022-12-15T10:25:29.382Z,4.09
2022-12-15T10:28:16.064Z,3.47
2022-12-15T10:30:56.852Z,3.22
2022-12-15T10:33:28.370Z,3.03
2022-12-15T10:35:56.531Z,3.67
2022-12-15T10:38:33.119Z,3.98
2022-12-15T10:41:09.946Z,3.97
2022-12-15T10:43:42.477Z,4.43
2022-12-15T10:46:24.094Z,3.93
2022-12-15T10:48:57.692Z,4.12
2022-12-15T10:51:44.478Z,3.99
2022-12-15T10:54:15.122Z,3.66
2022-12-15T10:56:54.588Z,3.84
2022-12-15T10:59:31.957Z,3.82
2022-12-15T11:02:26.715Z,3.98
2022-12-15T11:04:56.872Z,3.98
2022-12-15T11:07:36.294Z,3.95
2022-12-15T11:10:24.886Z,3.68
2022-12-15T11:13:14.221Z,3.49
2022-12-15T11:15:53.325Z,3.83
2022-12-15T11:18:49.673Z,3.61
2022-12-15T11:21:22.346Z,3.54
2022-12-15T11:24:11.575Z,3.55
2022-12-15T11:26:57.993Z,3.52
2022-12-15T11:29:43.264Z,3.62
2022-12-15T11:32:13.146Z,3.49
2022-12-15T11:34:45.955Z,3.52
2022-12-15T11:37:36.411Z,3.76
2022-12-15T11:40:23.666Z,3.60
2022-12-15T11:43:11.052Z,3.82
2022-12-15T11:46:17.400Z,3.76
2022-12-15T11:49:10.192Z,3.56
2022-12-15T11:51:51.205Z,3.38
2022-12-15T11:54:34.988Z,3.92
2022-12-15T11:57:27.377Z,3.78
2022-12-15T12:00:17.969Z,3.61
2022-12-15T12:02:57.747Z,3.78
2022-12-15T12:05:46.724Z,3.82
2022-12-15T12:08:42.404Z,3.71
2022-12-15T12:11:20.396Z,3.77
2022-12-15T12:13:56.967Z,3.74
2022-12-15T12:16:42.005Z,3.78
2022-12-15T12:19:11.695Z,3.97
2022-12-15T12:21:50.889Z,4.10
2022-12-15T12:24:37.522Z,4.03
2022-12-15T12:27:31.856Z,3.92
2022-12-15T12:30:04.326Z,4.17
2022-12-15T12:32:40.840Z,4.06
2022-12-15T12:35:32.949Z,3.86
2022-12-15T12:38:07.798Z,3.96
2022-12-15T12:40:41.487Z,4.09
2022-12-15T12:43:14.241Z,3.97
2022-12-15T12:45:47.129Z,3.86
2022-12-15T12:48:29.806Z,3.82
2022-12-15T12:51:12.255Z,3.97
2022-12-15T12:53:39.843Z,3.92
2022-12-15T12:56:07.760Z,4.07
2022-12-15T12:58:41.477Z,4.16
2022-12-15T13:01:28.313Z,4.05
2022-12-15T13:04:12.311Z,4.10
2022-12-15T13:06:39.792Z,4.12
2022-12-15T13:09:19.352Z,4.14
2022-12-15T13:11:47.255Z,4.18
2022-12-15T13:14:27.164Z,4.24
2022-12-15T13:19:59.335Z,4.24
2022-12-15T13:22:33.482Z,4.02
2022-12-15T13:25:03.322Z,4.25
2022-12-15T13:27:40.731Z,4.02
2022-12-15T13:30:08.224Z,4.02
2022-12-15T13:32:35.745Z,3.87
2022-12-15T13:35:12.358Z,3.76
2022-12-15T13:37:52.984Z,3.59
2022-12-15T13:40:35.818Z,3.55
2022-12-15T13:43:03.796Z,3.58
2022-12-15T13:45:42.091Z,3.50
2022-12-15T13:48:28.975Z,3.57
2022-12-15T13:51:28.315Z,3.41
2022-12-15T13:54:04.799Z,3.25
2022-12-15T13:56:46.494Z,3.40
2022-12-15T13:59:58.995Z,3.29
2022-12-15T14:02:35.835Z,3.40
2022-12-15T14:05:25.916Z,3.39
2022-12-15T14:07:54.941Z,3.45
2022-12-15T14:10:33.562Z,3.26
2022-12-15T14:13:16.511Z,3.24
2022-12-15T14:15:53.564Z,3.17
2022-12-15T14:18:42.255Z,3.17
2022-12-15T14:21:21.950Z,3.31
2022-12-15T14:24:19.720Z,3.30
2022-12-15T14:26:37.625Z,3.15
2022-12-15T14:29:06.235Z,3.18
2022-12-15T14:31:36.980Z,3.07
2022-12-15T14:34:18.773Z,3.09
2022-12-15T14:36:47.965Z,3.04
2022-12-15T14:39:30.943Z,3.07
2022-12-15T14:41:59.803Z,3.00
2022-12-15T14:44:39.379Z,3.03
2022-12-15T14:47:16.876Z,3.00
2022-12-15T14:49:46.464Z,2.94
2022-12-15T14:52:38.931Z,3.03
2022-12-15T14:55:30.358Z,3.03
2022-12-15T14:57:58.175Z,3.05
2022-12-15T15:00:34.045Z,2.98
2022-12-15T15:03:26.988Z,3.04
2022-12-15T15:06:00.025Z,3.15
2022-12-15T15:08:49.200Z,3.06
2022-12-15T15:11:30.930Z,3.25
2022-12-15T15:14:28.807Z,3.19
2022-12-15T15:17:09.702Z,3.18
2022-12-15T15:19:46.868Z,3.06
2022-12-15T15:22:41.297Z,3.11
2022-12-15T15:25:39.404Z,3.13
2022-12-15T15:28:21.699Z,3.09
2022-12-15T15:30:52.314Z,3.06
2022-12-15T15:33:25.549Z,3.04
2022-12-15T15:35:56.458Z,3.04
2022-12-15T15:38:35.317Z,3.04
2022-12-15T15:41:31.451Z,2.88
2022-12-15T15:44:00.930Z,2.96
2022-12-15T15:46:34.691Z,2.91
2022-12-15T15:49:07.960Z,3.03
2022-12-15T15:51:36.143Z,2.92
2022-12-15T15:54:13.066Z,2.93
2022-12-15T15:56:41.596Z,2.88
2022-12-15T15:59:16.490Z,2.90
2022-12-15T16:01:46.757Z,2.89
2022-12-15T16:04:14.817Z,2.89
2022-12-15T16:06:47.252Z,2.86
2022-12-15T16:09:15.734Z,2.91
2022-12-15T16:11:44.970Z,2.88
2022-12-15T16:14:16.911Z,2.89
2022-12-15T16:16:45.911Z,3.02
2022-12-15T16:19:13.447Z,2.90
2022-12-15T16:21:42.909Z,2.85
2022-12-15T16:24:16.528Z,2.99
2022-12-15T16:26:48.922Z,2.95
2022-12-15T16:29:19.168Z,2.84
2022-12-15T16:31:46.988Z,2.94
2022-12-15T16:34:20.452Z,2.87
2022-12-15T16:36:48.172Z,2.93
2022-12-15T16:39:25.832Z,2.89
2022-12-15T16:41:54.750Z,2.91
2022-12-15T16:44:22.547Z,3.07
2022-12-15T16:46:50.187Z,2.99
2022-12-15T16:49:17.732Z,3.06
2022-12-15T16:51:48.104Z,2.99
2022-12-15T16:54:19.936Z,2.99
2022-12-15T16:56:47.800Z,2.96
2022-12-15T16:59:34.710Z,3.08
2022-12-15T17:02:22.158Z,3.05
2022-12-15T17:04:50.315Z,3.09
2022-12-15T17:07:20.573Z,3.01
2022-12-15T17:09:50.453Z,3.04
2022-12-15T17:12:18.762Z,2.94
2022-12-15T17:14:46.657Z,2.93
2022-12-15T17:17:15.877Z,2.89
2022-12-15T17:19:57.810Z,2.90
2022-12-15T17:22:33.286Z,2.90
2022-12-15T17:25:01.531Z,3.43
2022-12-15T17:27:30.195Z,3.27
2022-12-15T17:30:00.076Z,2.97
2022-12-15T17:32:27.690Z,3.08
2022-12-15T17:34:55.857Z,3.84
2022-12-15T17:37:26.158Z,3.93
2022-12-15T17:39:56.875Z,3.41
2022-12-15T17:42:24.716Z,3.24
2022-12-15T17:44:52.357Z,3.10
2022-12-15T17:47:20.060Z,3.06
2022-12-15T17:49:47.764Z,3.07
2022-12-15T17:52:30.143Z,3.12
2022-12-15T17:54:57.989Z,3.02
2022-12-15T17:57:26.359Z,3.10
2022-12-15T17:59:54.038Z,3.06
2022-12-15T18:02:21.880Z,3.11
2022-12-15T18:04:50.019Z,3.03
2022-12-15T18:07:22.737Z,4.76
2022-12-15T18:09:52.198Z,3.03
2022-12-15T18:12:27.404Z,5.27
2022-12-15T18:14:55.984Z,5.68
2022-12-15T18:17:24.124Z,5.53
2022-12-15T18:19:51.812Z,5.40
2022-12-15T18:22:22.627Z,5.39
2022-12-15T18:24:52.936Z,5.45
2022-12-15T18:27:23.461Z,5.50
2022-12-15T18:29:52.030Z,5.41
2022-12-15T18:32:22.647Z,5.26
2022-12-15T18:34:50.631Z,5.44
2022-12-15T18:37:20.437Z,3.68
2022-12-15T18:39:48.457Z,5.37
2022-12-15T18:42:18.569Z,5.26
2022-12-15T18:44:50.470Z,5.17
2022-12-15T18:47:21.045Z,4.87
2022-12-15T18:49:48.873Z,4.56
2022-12-15T18:52:16.579Z,4.67
2022-12-15T18:54:44.987Z,3.00
2022-12-15T18:57:27.268Z,4.70
2022-12-15T19:00:10.134Z,4.86
2022-12-15T19:02:37.956Z,3.31
2022-12-15T19:05:07.066Z,2.86
2022-12-15T19:07:35.937Z,4.32
2022-12-15T19:10:03.985Z,4.74
2022-12-15T19:12:32.016Z,4.87
2022-12-15T19:14:59.735Z,3.07
2022-12-15T19:17:45.707Z,2.61
2022-12-15T19:20:37.607Z,4.31
2022-12-15T19:23:06.900Z,4.33
2022-12-15T19:25:35.423Z,3.86
2022-12-15T19:28:03.577Z,4.45
2022-12-15T19:30:42.001Z,4.64
2022-12-15T19:33:12.137Z,4.45
2022-12-15T19:35:42.619Z,4.35
2022-12-15T19:38:20.402Z,4.30
2022-12-15T19:40:53.125Z,4.64
2022-12-15T19:43:22.934Z,4.49
2022-12-15T19:45:52.040Z,4.67
2022-12-15T19:48:24.624Z,4.30
2022-12-15T19:50:54.665Z,4.32
2022-12-15T19:53:25.834Z,4.39
2022-12-15T19:55:55.565Z,4.04
2022-12-15T19:58:30.078Z,3.94
2022-12-15T20:00:59.445Z,3.82
2022-12-15T20:03:29.345Z,3.62
2022-12-15T20:05:59.343Z,3.54
2022-12-15T20:08:29.853Z,3.65
2022-12-15T20:10:57.947Z,3.44
2022-12-15T20:13:26.539Z,3.44
2022-12-15T20:15:54.905Z,3.70
2022-12-15T20:18:22.826Z,3.55
2022-12-15T20:20:50.678Z,3.67
2022-12-15T20:23:26.384Z,3.79
2022-12-15T20:25:54.671Z,3.89
2022-12-15T20:28:24.915Z,2.80
2022-12-15T20:30:53.986Z,2.44
2022-12-15T20:33:22.170Z,2.51
2022-12-15T20:35:50.693Z,2.56
2022-12-15T20:38:31.924Z,2.56
2022-12-15T20:41:01.369Z,2.56
2022-12-15T20:43:31.739Z,4.11
2022-12-15T20:46:07.445Z,3.09
2022-12-15T20:48:36.830Z,2.63
2022-12-15T20:51:09.481Z,3.61
2022-12-15T20:53:39.013Z,3.70
2022-12-15T20:56:07.259Z,3.59
2022-12-15T20:58:40.846Z,3.84
2022-12-15T21:01:20.996Z,3.77
2022-12-15T21:03:51.752Z,3.59
2022-12-15T21:06:19.618Z,3.51
2022-12-15T21:08:47.993Z,3.50
2022-12-15T21:11:18.924Z,3.52
2022-12-15T21:13:49.178Z,3.43
2022-12-15T21:16:19.808Z,3.38
2022-12-15T21:19:18.548Z,3.71
2022-12-15T21:21:42.812Z,3.67
2022-12-15T21:24:25.109Z,3.80
2022-12-15T21:26:52.876Z,3.77
2022-12-15T21:29:24.213Z,3.60
2022-12-15T21:31:51.781Z,2.88
2022-12-15T21:34:19.356Z,2.30
2022-12-15T21:36:52.029Z,2.27
2022-12-15T21:39:25.277Z,2.38
2022-12-15T21:41:52.852Z,2.31
2022-12-15T21:44:22.665Z,2.67
2022-12-15T21:46:50.260Z,2.34
2022-12-15T21:49:19.447Z,2.36
2022-12-15T21:52:00.970Z,2.28
2022-12-15T21:54:34.762Z,2.28
2022-12-15T21:57:03.216Z,3.89
2022-12-15T21:59:32.953Z,2.42
2022-12-15T22:02:01.345Z,2.35
2022-12-15T22:04:31.946Z,2.41
2022-12-15T22:06:59.615Z,3.58
2022-12-15T22:09:28.713Z,3.23
2022-12-15T22:11:56.752Z,2.49
2022-12-15T22:14:32.069Z,2.46
2022-12-15T22:17:01.859Z,2.38
2022-12-15T22:19:29.455Z,2.25
2022-12-15T22:21:57.022Z,4.10
2022-12-15T22:24:24.479Z,2.93
2022-12-15T22:26:52.047Z,4.08
2022-12-15T22:29:22.500Z,2.62
2022-12-15T22:31:52.704Z,2.56
2022-12-15T22:34:26.266Z,2.68
2022-12-15T22:36:54.951Z,3.57
2022-12-15T22:39:22.643Z,4.25
2022-12-15T22:41:51.652Z,4.21
2022-12-15T22:44:23.325Z,4.45
2022-12-15T22:46:53.975Z,4.63
2022-12-15T22:49:24.957Z,4.39
2022-12-15T22:51:52.482Z,4.23
2022-12-15T22:54:27.811Z,4.24
2022-12-15T22:57:10.681Z,4.15
2022-12-15T22:59:43.673Z,4.14
2022-12-15T23:02:11.638Z,4.25
2022-12-15T23:04:40.470Z,4.07
2022-12-15T23:07:11.805Z,3.87
2022-12-15T23:09:39.347Z,3.88
2022-12-15T23:12:07.063Z,2.42
2022-12-15T23:14:52.901Z,2.36
2022-12-15T23:17:21.075Z,4.06
2022-12-15T23:19:48.706Z,4.05
2022-12-15T23:22:16.163Z,3.90
2022-12-15T23:24:43.632Z,4.12
2022-12-15T23:27:11.907Z,4.09
2022-12-15T23:29:39.861Z,4.02
2022-12-15T23:32:07.354Z,3.93
2022-12-15T23:34:35.674Z,4.06
2022-12-15T23:37:03.203Z,4.04
2022-12-15T23:39:30.713Z,3.98
2022-12-15T23:41:58.222Z,4.07
2022-12-15T23:44:25.799Z,4.32
2022-12-15T23:46:53.553Z,4.39
2022-12-15T23:49:21.187Z,4.33
2022-12-15T23:51:49.009Z,4.30
2022-12-15T23:54:16.536Z,4.26
2022-12-15T23:56:44.130Z,4.45
2022-12-15T23:59:12.570Z,4.61
